sensor_id;sensor_type;location;lat;lon;timestamp;P1;durP1;ratioP1;P2;durP2;ratioP2
34353;SDS011;20618;0.000;0.000;2023-11-19T00:00:34;2.00;;;1.00;;
34353;SDS011;20618;0.000;0.000;2023-11-19T00:03:00;1.30;;;1.00;;
34353;SDS011;20618;0.000;0.000;2023-11-19T00:05:27;1.88;;;0.85;;
34353;SDS011;20618;0.000;0.000;2023-11-19T00:07:54;1.67;;;0.98;;
34353;SDS011;20618;0.000;0.000;2023-11-19T00:10:20;1.83;;;1.10;;
34353;SDS011;20618;0.000;0.000;2023-11-19T00:12:47;2.60;;;1.20;;
34353;SDS011;20618;0.000;0.000;2023-11-19T00:15:13;2.03;;;1.00;;
34353;SDS011;20618;0.000;0.000;2023-11-19T00:17:40;1.48;;;1.10;;
34353;SDS011;20618;0.000;0.000;2023-11-19T00:20:10;2.42;;;1.30;;
34353;SDS011;20618;0.000;0.000;2023-11-19T00:22:36;1.50;;;1.10;;
34353;SDS011;20618;0.000;0.000;2023-11-19T00:25:02;1.42;;;1.08;;
34353;SDS011;20618;0.000;0.000;2023-11-19T00:27:28;1.88;;;1.00;;
34353;SDS011;20618;0.000;0.000;2023-11-19T00:29:55;2.50;;;1.23;;
34353;SDS011;20618;0.000;0.000;2023-11-19T00:32:22;2.15;;;1.30;;
34353;SDS011;20618;0.000;0.000;2023-11-19T00:34:48;1.63;;;1.02;;
34353;SDS011;20618;0.000;0.000;2023-11-19T00:37:14;1.58;;;1.10;;
34353;SDS011;20618;0.000;0.000;2023-11-19T00:39:41;1.63;;;1.00;;
34353;SDS011;20618;0.000;0.000;2023-11-19T00:42:07;1.50;;;1.00;;
34353;SDS011;20618;0.000;0.000;2023-11-19T00:44:35;1.90;;;1.15;;
34353;SDS011;20618;0.000;0.000;2023-11-19T00:47:01;2.08;;;1.00;;
34353;SDS011;20618;0.000;0.000;2023-11-19T00:49:27;1.88;;;1.35;;
34353;SDS011;20618;0.000;0.000;2023-11-19T00:51:53;1.70;;;1.10;;
34353;SDS011;20618;0.000;0.000;2023-11-19T00:54:20;2.22;;;1.02;;
34353;SDS011;20618;0.000;0.000;2023-11-19T00:56:46;1.52;;;1.10;;
34353;SDS011;20618;0.000;0.000;2023-11-19T00:59:12;2.08;;;1.15;;
34353;SDS011;20618;0.000;0.000;2023-11-19T01:01:39;1.80;;;1.20;;
34353;SDS011;20618;0.000;0.000;2023-11-19T01:04:05;1.70;;;0.98;;
34353;SDS011;20618;0.000;0.000;2023-11-19T01:06:32;1.63;;;0.93;;
34353;SDS011;20618;0.000;0.000;2023-11-19T01:08:58;1.52;;;1.00;;
34353;SDS011;20618;0.000;0.000;2023-11-19T01:11:25;1.45;;;0.90;;
34353;SDS011;20618;0.000;0.000;2023-11-19T01:13:51;2.10;;;1.10;;
34353;SDS011;20618;0.000;0.000;2023-11-19T01:16:18;2.15;;;1.20;;
34353;SDS011;20618;0.000;0.000;2023-11-19T01:18:46;1.92;;;1.27;;
34353;SDS011;20618;0.000;0.000;2023-11-19T01:21:13;1.40;;;0.98;;
34353;SDS011;20618;0.000;0.000;2023-11-19T01:23:42;1.20;;;0.80;;
34353;SDS011;20618;0.000;0.000;2023-11-19T01:26:09;1.48;;;1.00;;
34353;SDS011;20618;0.000;0.000;2023-11-19T01:28:35;1.38;;;1.10;;
34353;SDS011;20618;0.000;0.000;2023-11-19T01:31:02;2.25;;;1.00;;
34353;SDS011;20618;0.000;0.000;2023-11-19T01:33:28;1.90;;;1.13;;
34353;SDS011;20618;0.000;0.000;2023-11-19T01:35:54;2.17;;;1.40;;
34353;SDS011;20618;0.000;0.000;2023-11-19T01:38:24;2.13;;;1.20;;
34353;SDS011;20618;0.000;0.000;2023-11-19T01:40:50;1.88;;;1.10;;
34353;SDS011;20618;0.000;0.000;2023-11-19T01:43:58;1.83;;;1.20;;
34353;SDS011;20618;0.000;0.000;2023-11-19T01:46:12;2.15;;;1.15;;
34353;SDS011;20618;0.000;0.000;2023-11-19T01:48:40;2.78;;;1.25;;
34353;SDS011;20618;0.000;0.000;2023-11-19T01:51:08;1.60;;;1.10;;
34353;SDS011;20618;0.000;0.000;2023-11-19T01:53:34;1.73;;;1.30;;
34353;SDS011;20618;0.000;0.000;2023-11-19T01:56:01;1.70;;;1.10;;
34353;SDS011;20618;0.000;0.000;2023-11-19T01:58:28;1.73;;;1.20;;
34353;SDS011;20618;0.000;0.000;2023-11-19T02:00:55;2.28;;;1.15;;
34353;SDS011;20618;0.000;0.000;2023-11-19T02:03:21;1.42;;;1.00;;
34353;SDS011;20618;0.000;0.000;2023-11-19T02:05:47;1.98;;;1.00;;
34353;SDS011;20618;0.000;0.000;2023-11-19T02:08:14;2.47;;;1.23;;
34353;SDS011;20618;0.000;0.000;2023-11-19T02:10:40;1.83;;;1.00;;
34353;SDS011;20618;0.000;0.000;2023-11-19T02:13:06;2.78;;;1.30;;
34353;SDS011;20618;0.000;0.000;2023-11-19T02:15:33;2.40;;;1.10;;
34353;SDS011;20618;0.000;0.000;2023-11-19T02:18:18;1.67;;;1.25;;
34353;SDS011;20618;0.000;0.000;2023-11-19T02:20:45;2.22;;;1.35;;
34353;SDS011;20618;0.000;0.000;2023-11-19T02:23:12;3.03;;;1.30;;
34353;SDS011;20618;0.000;0.000;2023-11-19T02:25:39;1.98;;;1.17;;
34353;SDS011;20618;0.000;0.000;2023-11-19T02:28:06;2.05;;;1.20;;
34353;SDS011;20618;0.000;0.000;2023-11-19T02:30:33;2.90;;;1.20;;
34353;SDS011;20618;0.000;0.000;2023-11-19T02:32:59;1.58;;;1.05;;
34353;SDS011;20618;0.000;0.000;2023-11-19T02:35:30;4.38;;;1.50;;
34353;SDS011;20618;0.000;0.000;2023-11-19T02:37:57;1.83;;;1.17;;
34353;SDS011;20618;0.000;0.000;2023-11-19T02:40:24;2.03;;;1.10;;
34353;SDS011;20618;0.000;0.000;2023-11-19T02:42:51;2.65;;;1.20;;
34353;SDS011;20618;0.000;0.000;2023-11-19T02:45:18;2.05;;;1.13;;
34353;SDS011;20618;0.000;0.000;2023-11-19T02:47:44;1.98;;;1.30;;
34353;SDS011;20618;0.000;0.000;2023-11-19T02:50:10;2.20;;;1.00;;
34353;SDS011;20618;0.000;0.000;2023-11-19T02:52:39;3.20;;;1.13;;
34353;SDS011;20618;0.000;0.000;2023-11-19T02:55:05;2.15;;;1.27;;
34353;SDS011;20618;0.000;0.000;2023-11-19T02:57:35;2.00;;;1.15;;
34353;SDS011;20618;0.000;0.000;2023-11-19T03:00:01;1.80;;;1.27;;
34353;SDS011;20618;0.000;0.000;2023-11-19T03:02:38;1.85;;;0.93;;
34353;SDS011;20618;0.000;0.000;2023-11-19T03:05:09;2.10;;;1.10;;
34353;SDS011;20618;0.000;0.000;2023-11-19T03:07:36;1.73;;;1.00;;
34353;SDS011;20618;0.000;0.000;2023-11-19T03:10:02;2.42;;;1.30;;
34353;SDS011;20618;0.000;0.000;2023-11-19T03:12:31;3.22;;;1.40;;
34353;SDS011;20618;0.000;0.000;2023-11-19T03:14:57;2.42;;;1.23;;
34353;SDS011;20618;0.000;0.000;2023-11-19T03:17:23;2.30;;;1.10;;
34353;SDS011;20618;0.000;0.000;2023-11-19T03:19:50;1.88;;;1.05;;
34353;SDS011;20618;0.000;0.000;2023-11-19T03:22:16;1.70;;;1.30;;
34353;SDS011;20618;0.000;0.000;2023-11-19T03:24:42;2.00;;;1.08;;
34353;SDS011;20618;0.000;0.000;2023-11-19T03:27:08;1.70;;;1.08;;
34353;SDS011;20618;0.000;0.000;2023-11-19T03:29:35;2.30;;;1.30;;
34353;SDS011;20618;0.000;0.000;2023-11-19T03:32:01;2.45;;;1.17;;
34353;SDS011;20618;0.000;0.000;2023-11-19T03:34:27;2.13;;;1.15;;
34353;SDS011;20618;0.000;0.000;2023-11-19T03:36:53;1.55;;;1.10;;
34353;SDS011;20618;0.000;0.000;2023-11-19T03:39:20;2.20;;;1.08;;
34353;SDS011;20618;0.000;0.000;2023-11-19T03:41:49;2.00;;;1.30;;
34353;SDS011;20618;0.000;0.000;2023-11-19T03:44:16;3.78;;;1.48;;
34353;SDS011;20618;0.000;0.000;2023-11-19T03:46:43;2.58;;;1.30;;
34353;SDS011;20618;0.000;0.000;2023-11-19T03:49:09;2.08;;;1.33;;
34353;SDS011;20618;0.000;0.000;2023-11-19T03:51:35;1.63;;;1.17;;
34353;SDS011;20618;0.000;0.000;2023-11-19T03:54:01;1.67;;;1.05;;
34353;SDS011;20618;0.000;0.000;2023-11-19T03:56:27;2.90;;;1.40;;
34353;SDS011;20618;0.000;0.000;2023-11-19T03:58:53;3.13;;;1.20;;
34353;SDS011;20618;0.000;0.000;2023-11-19T04:01:20;2.08;;;1.13;;
34353;SDS011;20618;0.000;0.000;2023-11-19T04:03:46;3.63;;;1.30;;
34353;SDS011;20618;0.000;0.000;2023-11-19T04:06:12;1.58;;;1.10;;
34353;SDS011;20618;0.000;0.000;2023-11-19T04:08:38;2.03;;;1.20;;
34353;SDS011;20618;0.000;0.000;2023-11-19T04:11:04;2.58;;;1.30;;
34353;SDS011;20618;0.000;0.000;2023-11-19T04:13:31;2.28;;;1.33;;
34353;SDS011;20618;0.000;0.000;2023-11-19T04:15:57;2.10;;;1.20;;
34353;SDS011;20618;0.000;0.000;2023-11-19T04:18:23;2.38;;;1.27;;
34353;SDS011;20618;0.000;0.000;2023-11-19T04:20:49;2.60;;;1.52;;
34353;SDS011;20618;0.000;0.000;2023-11-19T04:23:16;2.72;;;1.50;;
34353;SDS011;20618;0.000;0.000;2023-11-19T04:25:42;3.15;;;1.35;;
34353;SDS011;20618;0.000;0.000;2023-11-19T04:28:08;2.20;;;1.20;;
34353;SDS011;20618;0.000;0.000;2023-11-19T04:30:34;3.05;;;1.42;;
34353;SDS011;20618;0.000;0.000;2023-11-19T04:33:00;2.95;;;1.23;;
34353;SDS011;20618;0.000;0.000;2023-11-19T04:35:27;2.47;;;1.20;;
34353;SDS011;20618;0.000;0.000;2023-11-19T04:37:53;1.35;;;1.00;;
34353;SDS011;20618;0.000;0.000;2023-11-19T04:40:22;1.98;;;1.00;;
34353;SDS011;20618;0.000;0.000;2023-11-19T04:42:48;2.17;;;1.27;;
34353;SDS011;20618;0.000;0.000;2023-11-19T04:45:14;2.03;;;1.20;;
34353;SDS011;20618;0.000;0.000;2023-11-19T04:47:41;2.47;;;1.40;;
34353;SDS011;20618;0.000;0.000;2023-11-19T04:50:08;2.42;;;1.30;;
34353;SDS011;20618;0.000;0.000;2023-11-19T04:52:37;2.65;;;1.30;;
34353;SDS011;20618;0.000;0.000;2023-11-19T04:55:10;2.95;;;1.50;;
34353;SDS011;20618;0.000;0.000;2023-11-19T04:57:39;3.40;;;1.60;;
34353;SDS011;20618;0.000;0.000;2023-11-19T05:00:05;2.50;;;1.40;;
34353;SDS011;20618;0.000;0.000;2023-11-19T05:02:36;1.80;;;1.20;;
34353;SDS011;20618;0.000;0.000;2023-11-19T05:05:02;2.53;;;1.35;;
34353;SDS011;20618;0.000;0.000;2023-11-19T05:07:29;2.88;;;1.73;;
34353;SDS011;20618;0.000;0.000;2023-11-19T05:09:56;3.15;;;1.60;;
34353;SDS011;20618;0.000;0.000;2023-11-19T05:12:22;3.10;;;1.65;;
34353;SDS011;20618;0.000;0.000;2023-11-19T05:14:48;2.50;;;1.35;;
34353;SDS011;20618;0.000;0.000;2023-11-19T05:17:17;2.30;;;1.35;;
34353;SDS011;20618;0.000;0.000;2023-11-19T05:19:44;2.70;;;1.30;;
34353;SDS011;20618;0.000;0.000;2023-11-19T05:22:10;3.95;;;1.45;;
34353;SDS011;20618;0.000;0.000;2023-11-19T05:24:36;2.88;;;1.40;;
34353;SDS011;20618;0.000;0.000;2023-11-19T05:27:02;3.75;;;1.40;;
34353;SDS011;20618;0.000;0.000;2023-11-19T05:29:29;4.57;;;1.45;;
34353;SDS011;20618;0.000;0.000;2023-11-19T05:31:55;2.25;;;1.20;;
34353;SDS011;20618;0.000;0.000;2023-11-19T05:34:21;2.25;;;1.25;;
34353;SDS011;20618;0.000;0.000;2023-11-19T05:36:47;2.67;;;1.58;;
34353;SDS011;20618;0.000;0.000;2023-11-19T05:39:14;2.95;;;1.55;;
34353;SDS011;20618;0.000;0.000;2023-11-19T05:41:41;2.65;;;1.58;;
34353;SDS011;20618;0.000;0.000;2023-11-19T05:44:07;2.95;;;1.48;;
34353;SDS011;20618;0.000;0.000;2023-11-19T05:46:33;4.38;;;1.67;;
34353;SDS011;20618;0.000;0.000;2023-11-19T05:49:05;3.60;;;1.50;;
34353;SDS011;20618;0.000;0.000;2023-11-19T05:51:31;4.50;;;1.70;;
34353;SDS011;20618;0.000;0.000;2023-11-19T05:53:57;3.22;;;1.40;;
34353;SDS011;20618;0.000;0.000;2023-11-19T05:56:24;3.67;;;1.33;;
34353;SDS011;20618;0.000;0.000;2023-11-19T05:58:57;3.78;;;1.25;;
34353;SDS011;20618;0.000;0.000;2023-11-19T06:01:25;4.28;;;1.50;;
34353;SDS011;20618;0.000;0.000;2023-11-19T06:03:51;3.22;;;1.50;;
34353;SDS011;20618;0.000;0.000;2023-11-19T06:06:18;2.95;;;1.30;;
34353;SDS011;20618;0.000;0.000;2023-11-19T06:08:44;2.38;;;1.40;;
34353;SDS011;20618;0.000;0.000;2023-11-19T06:11:10;3.92;;;1.27;;
34353;SDS011;20618;0.000;0.000;2023-11-19T06:13:40;2.20;;;1.30;;
34353;SDS011;20618;0.000;0.000;2023-11-19T06:16:06;2.47;;;1.30;;
34353;SDS011;20618;0.000;0.000;2023-11-19T06:18:32;3.00;;;1.50;;
34353;SDS011;20618;0.000;0.000;2023-11-19T06:20:59;3.17;;;1.65;;
34353;SDS011;20618;0.000;0.000;2023-11-19T06:23:25;2.85;;;1.30;;
34353;SDS011;20618;0.000;0.000;2023-11-19T06:25:51;2.15;;;1.40;;
34353;SDS011;20618;0.000;0.000;2023-11-19T06:28:17;3.30;;;1.55;;
34353;SDS011;20618;0.000;0.000;2023-11-19T06:30:43;3.38;;;1.65;;
34353;SDS011;20618;0.000;0.000;2023-11-19T06:33:14;3.78;;;1.67;;
34353;SDS011;20618;0.000;0.000;2023-11-19T06:35:40;3.63;;;1.50;;
34353;SDS011;20618;0.000;0.000;2023-11-19T06:38:06;3.92;;;1.50;;
34353;SDS011;20618;0.000;0.000;2023-11-19T06:40:32;3.40;;;1.45;;
34353;SDS011;20618;0.000;0.000;2023-11-19T06:43:00;2.92;;;1.30;;
34353;SDS011;20618;0.000;0.000;2023-11-19T06:45:28;2.13;;;1.30;;
34353;SDS011;20618;0.000;0.000;2023-11-19T06:47:54;3.13;;;1.45;;
34353;SDS011;20618;0.000;0.000;2023-11-19T06:50:21;4.03;;;1.38;;
34353;SDS011;20618;0.000;0.000;2023-11-19T06:52:48;2.28;;;1.30;;
34353;SDS011;20618;0.000;0.000;2023-11-19T06:55:15;4.60;;;1.45;;
34353;SDS011;20618;0.000;0.000;2023-11-19T06:57:41;3.80;;;1.70;;
34353;SDS011;20618;0.000;0.000;2023-11-19T07:00:09;4.70;;;1.42;;
34353;SDS011;20618;0.000;0.000;2023-11-19T07:02:36;6.28;;;1.67;;
34353;SDS011;20618;0.000;0.000;2023-11-19T07:05:02;4.90;;;1.42;;
34353;SDS011;20618;0.000;0.000;2023-11-19T07:07:30;5.60;;;1.25;;
34353;SDS011;20618;0.000;0.000;2023-11-19T07:09:57;2.78;;;1.27;;
34353;SDS011;20618;0.000;0.000;2023-11-19T07:12:23;4.32;;;1.90;;
34353;SDS011;20618;0.000;0.000;2023-11-19T07:14:51;4.65;;;1.60;;
34353;SDS011;20618;0.000;0.000;2023-11-19T07:17:18;3.97;;;1.40;;
34353;SDS011;20618;0.000;0.000;2023-11-19T07:19:45;4.90;;;1.52;;
34353;SDS011;20618;0.000;0.000;2023-11-19T07:22:11;4.05;;;1.48;;
34353;SDS011;20618;0.000;0.000;2023-11-19T07:24:40;4.88;;;1.52;;
34353;SDS011;20618;0.000;0.000;2023-11-19T07:27:08;3.60;;;1.35;;
34353;SDS011;20618;0.000;0.000;2023-11-19T07:29:37;3.40;;;1.40;;
34353;SDS011;20618;0.000;0.000;2023-11-19T07:32:03;4.38;;;1.58;;
34353;SDS011;20618;0.000;0.000;2023-11-19T07:34:30;4.60;;;1.70;;
34353;SDS011;20618;0.000;0.000;2023-11-19T07:36:56;4.38;;;1.42;;
34353;SDS011;20618;0.000;0.000;2023-11-19T07:39:24;5.20;;;1.60;;
34353;SDS011;20618;0.000;0.000;2023-11-19T07:41:50;5.82;;;1.75;;
34353;SDS011;20618;0.000;0.000;2023-11-19T07:44:17;5.07;;;1.48;;
34353;SDS011;20618;0.000;0.000;2023-11-19T07:46:43;7.68;;;1.75;;
34353;SDS011;20618;0.000;0.000;2023-11-19T07:49:10;7.40;;;1.30;;
34353;SDS011;20618;0.000;0.000;2023-11-19T07:51:36;5.53;;;1.50;;
34353;SDS011;20618;0.000;0.000;2023-11-19T07:54:02;2.88;;;1.40;;
34353;SDS011;20618;0.000;0.000;2023-11-19T07:56:29;5.90;;;1.50;;
34353;SDS011;20618;0.000;0.000;2023-11-19T07:58:55;5.07;;;1.83;;
34353;SDS011;20618;0.000;0.000;2023-11-19T08:01:21;6.65;;;1.55;;
34353;SDS011;20618;0.000;0.000;2023-11-19T08:03:48;6.43;;;1.55;;
34353;SDS011;20618;0.000;0.000;2023-11-19T08:06:14;4.65;;;1.42;;
34353;SDS011;20618;0.000;0.000;2023-11-19T08:08:41;3.97;;;1.45;;
34353;SDS011;20618;0.000;0.000;2023-11-19T08:11:08;3.70;;;1.63;;
34353;SDS011;20618;0.000;0.000;2023-11-19T08:13:34;3.75;;;1.70;;
34353;SDS011;20618;0.000;0.000;2023-11-19T08:16:00;6.65;;;2.10;;
34353;SDS011;20618;0.000;0.000;2023-11-19T08:18:26;5.07;;;1.73;;
34353;SDS011;20618;0.000;0.000;2023-11-19T08:20:52;7.18;;;1.63;;
34353;SDS011;20618;0.000;0.000;2023-11-19T08:23:19;8.45;;;1.80;;
34353;SDS011;20618;0.000;0.000;2023-11-19T08:25:46;3.53;;;1.88;;
34353;SDS011;20618;0.000;0.000;2023-11-19T08:28:12;7.00;;;1.52;;
34353;SDS011;20618;0.000;0.000;2023-11-19T08:30:38;3.70;;;1.50;;
34353;SDS011;20618;0.000;0.000;2023-11-19T08:33:04;5.05;;;1.75;;
34353;SDS011;20618;0.000;0.000;2023-11-19T08:35:32;5.30;;;1.92;;
34353;SDS011;20618;0.000;0.000;2023-11-19T08:37:58;5.22;;;1.80;;
34353;SDS011;20618;0.000;0.000;2023-11-19T08:40:24;9.75;;;1.70;;
34353;SDS011;20618;0.000;0.000;2023-11-19T08:42:55;4.88;;;1.75;;
34353;SDS011;20618;0.000;0.000;2023-11-19T08:45:21;5.35;;;1.92;;
34353;SDS011;20618;0.000;0.000;2023-11-19T08:47:47;3.20;;;1.52;;
34353;SDS011;20618;0.000;0.000;2023-11-19T08:50:14;4.63;;;1.75;;
34353;SDS011;20618;0.000;0.000;2023-11-19T08:52:40;3.92;;;1.67;;
34353;SDS011;20618;0.000;0.000;2023-11-19T08:55:06;5.20;;;2.00;;
34353;SDS011;20618;0.000;0.000;2023-11-19T08:57:32;4.97;;;1.63;;
34353;SDS011;20618;0.000;0.000;2023-11-19T08:59:58;5.88;;;1.88;;
34353;SDS011;20618;0.000;0.000;2023-11-19T09:02:25;6.63;;;1.65;;
34353;SDS011;20618;0.000;0.000;2023-11-19T09:04:51;6.82;;;1.88;;
34353;SDS011;20618;0.000;0.000;2023-11-19T09:07:17;6.38;;;1.80;;
34353;SDS011;20618;0.000;0.000;2023-11-19T09:09:43;5.38;;;1.85;;
34353;SDS011;20618;0.000;0.000;2023-11-19T09:12:09;6.55;;;1.77;;
34353;SDS011;20618;0.000;0.000;2023-11-19T09:14:36;4.65;;;1.65;;
34353;SDS011;20618;0.000;0.000;2023-11-19T09:17:02;4.93;;;1.67;;
34353;SDS011;20618;0.000;0.000;2023-11-19T09:19:28;6.57;;;1.58;;
34353;SDS011;20618;0.000;0.000;2023-11-19T09:21:54;5.15;;;1.50;;
34353;SDS011;20618;0.000;0.000;2023-11-19T09:24:20;6.85;;;1.60;;
34353;SDS011;20618;0.000;0.000;2023-11-19T09:26:46;7.95;;;1.88;;
34353;SDS011;20618;0.000;0.000;2023-11-19T09:29:13;3.70;;;1.50;;
34353;SDS011;20618;0.000;0.000;2023-11-19T09:31:42;5.35;;;2.10;;
34353;SDS011;20618;0.000;0.000;2023-11-19T09:34:08;4.63;;;1.80;;
34353;SDS011;20618;0.000;0.000;2023-11-19T09:36:34;6.05;;;1.67;;
34353;SDS011;20618;0.000;0.000;2023-11-19T09:39:01;5.93;;;1.98;;
34353;SDS011;20618;0.000;0.000;2023-11-19T09:41:27;7.07;;;1.52;;
34353;SDS011;20618;0.000;0.000;2023-11-19T09:43:55;5.22;;;1.75;;
34353;SDS011;20618;0.000;0.000;2023-11-19T09:46:21;8.40;;;2.33;;
34353;SDS011;20618;0.000;0.000;2023-11-19T09:48:49;6.50;;;1.70;;
34353;SDS011;20618;0.000;0.000;2023-11-19T09:51:20;5.80;;;1.70;;
34353;SDS011;20618;0.000;0.000;2023-11-19T09:53:47;7.25;;;2.15;;
34353;SDS011;20618;0.000;0.000;2023-11-19T09:56:14;7.10;;;1.90;;
34353;SDS011;20618;0.000;0.000;2023-11-19T09:58:42;5.63;;;1.58;;
34353;SDS011;20618;0.000;0.000;2023-11-19T10:01:08;5.93;;;1.75;;
34353;SDS011;20618;0.000;0.000;2023-11-19T10:03:37;7.38;;;1.83;;
34353;SDS011;20618;0.000;0.000;2023-11-19T10:06:08;5.25;;;2.13;;
34353;SDS011;20618;0.000;0.000;2023-11-19T10:08:36;5.37;;;2.00;;
34353;SDS011;20618;0.000;0.000;2023-11-19T10:11:04;5.53;;;1.90;;
34353;SDS011;20618;0.000;0.000;2023-11-19T10:13:30;4.32;;;1.70;;
34353;SDS011;20618;0.000;0.000;2023-11-19T10:15:56;6.45;;;1.85;;
34353;SDS011;20618;0.000;0.000;2023-11-19T10:18:26;4.15;;;1.70;;
34353;SDS011;20618;0.000;0.000;2023-11-19T10:20:52;5.93;;;2.35;;
34353;SDS011;20618;0.000;0.000;2023-11-19T10:23:20;5.97;;;1.98;;
34353;SDS011;20618;0.000;0.000;2023-11-19T10:25:47;6.72;;;2.10;;
34353;SDS011;20618;0.000;0.000;2023-11-19T10:28:14;7.53;;;1.75;;
34353;SDS011;20618;0.000;0.000;2023-11-19T10:30:44;6.57;;;1.77;;
34353;SDS011;20618;0.000;0.000;2023-11-19T10:33:11;6.13;;;1.92;;
34353;SDS011;20618;0.000;0.000;2023-11-19T10:35:55;5.05;;;1.70;;
34353;SDS011;20618;0.000;0.000;2023-11-19T10:38:27;5.30;;;1.92;;
34353;SDS011;20618;0.000;0.000;2023-11-19T10:40:54;6.18;;;1.88;;
34353;SDS011;20618;0.000;0.000;2023-11-19T10:43:20;9.15;;;1.77;;
34353;SDS011;20618;0.000;0.000;2023-11-19T10:45:48;6.38;;;1.63;;
34353;SDS011;20618;0.000;0.000;2023-11-19T10:48:14;5.57;;;2.05;;
34353;SDS011;20618;0.000;0.000;2023-11-19T10:50:42;9.95;;;2.10;;
34353;SDS011;20618;0.000;0.000;2023-11-19T10:53:09;5.93;;;1.70;;
34353;SDS011;20618;0.000;0.000;2023-11-19T10:55:37;5.90;;;2.20;;
34353;SDS011;20618;0.000;0.000;2023-11-19T10:58:07;4.57;;;1.80;;
34353;SDS011;20618;0.000;0.000;2023-11-19T11:00:54;6.05;;;1.95;;
34353;SDS011;20618;0.000;0.000;2023-11-19T11:03:21;6.38;;;2.00;;
34353;SDS011;20618;0.000;0.000;2023-11-19T11:05:48;4.80;;;1.90;;
34353;SDS011;20618;0.000;0.000;2023-11-19T11:08:15;5.90;;;1.92;;
34353;SDS011;20618;0.000;0.000;2023-11-19T11:10:45;9.57;;;2.50;;
34353;SDS011;20618;0.000;0.000;2023-11-19T11:13:12;4.50;;;1.70;;
34353;SDS011;20618;0.000;0.000;2023-11-19T11:15:39;5.90;;;2.05;;
34353;SDS011;20618;0.000;0.000;2023-11-19T11:18:08;7.18;;;2.03;;
34353;SDS011;20618;0.000;0.000;2023-11-19T11:20:34;7.93;;;2.00;;
34353;SDS011;20618;0.000;0.000;2023-11-19T11:28:35;6.00;;;2.00;;
34353;SDS011;20618;0.000;0.000;2023-11-19T11:36:27;6.63;;;2.13;;
34353;SDS011;20618;0.000;0.000;2023-11-19T11:38:53;5.57;;;2.15;;
34353;SDS011;20618;0.000;0.000;2023-11-19T11:41:22;6.63;;;2.38;;
34353;SDS011;20618;0.000;0.000;2023-11-19T11:43:50;7.78;;;2.28;;
34353;SDS011;20618;0.000;0.000;2023-11-19T11:49:01;5.20;;;2.30;;
34353;SDS011;20618;0.000;0.000;2023-11-19T11:57:06;7.80;;;2.50;;
34353;SDS011;20618;0.000;0.000;2023-11-19T12:02:07;7.22;;;1.98;;
34353;SDS011;20618;0.000;0.000;2023-11-19T12:04:34;7.50;;;2.08;;
34353;SDS011;20618;0.000;0.000;2023-11-19T12:07:04;5.32;;;2.45;;
34353;SDS011;20618;0.000;0.000;2023-11-19T12:09:31;8.30;;;2.20;;
34353;SDS011;20618;0.000;0.000;2023-11-19T12:20:05;12.70;;;2.42;;
34353;SDS011;20618;0.000;0.000;2023-11-19T12:22:43;8.80;;;2.28;;
34353;SDS011;20618;0.000;0.000;2023-11-19T12:25:10;9.23;;;2.67;;
34353;SDS011;20618;0.000;0.000;2023-11-19T12:27:40;13.90;;;3.55;;
34353;SDS011;20618;0.000;0.000;2023-11-19T12:30:07;5.70;;;2.28;;
34353;SDS011;20618;0.000;0.000;2023-11-19T12:32:40;7.93;;;2.70;;
34353;SDS011;20618;0.000;0.000;2023-11-19T12:35:07;7.38;;;2.60;;
34353;SDS011;20618;0.000;0.000;2023-11-19T12:37:45;11.10;;;2.53;;
34353;SDS011;20618;0.000;0.000;2023-11-19T12:40:19;8.30;;;2.30;;
34353;SDS011;20618;0.000;0.000;2023-11-19T12:42:45;5.55;;;2.20;;
34353;SDS011;20618;0.000;0.000;2023-11-19T12:45:12;6.20;;;2.20;;
34353;SDS011;20618;0.000;0.000;2023-11-19T12:47:44;8.02;;;2.58;;
34353;SDS011;20618;0.000;0.000;2023-11-19T12:50:14;5.45;;;2.40;;
34353;SDS011;20618;0.000;0.000;2023-11-19T12:52:43;5.95;;;2.28;;
34353;SDS011;20618;0.000;0.000;2023-11-19T12:55:29;9.00;;;2.28;;
34353;SDS011;20618;0.000;0.000;2023-11-19T12:57:57;6.18;;;2.50;;
34353;SDS011;20618;0.000;0.000;2023-11-19T13:00:25;9.98;;;2.60;;
34353;SDS011;20618;0.000;0.000;2023-11-19T13:02:52;9.35;;;2.20;;
34353;SDS011;20618;0.000;0.000;2023-11-19T13:05:22;7.43;;;2.65;;
34353;SDS011;20618;0.000;0.000;2023-11-19T13:07:48;8.60;;;2.13;;
34353;SDS011;20618;0.000;0.000;2023-11-19T13:10:14;9.23;;;2.50;;
34353;SDS011;20618;0.000;0.000;2023-11-19T13:12:41;7.50;;;2.50;;
34353;SDS011;20618;0.000;0.000;2023-11-19T13:15:21;8.05;;;2.13;;
34353;SDS011;20618;0.000;0.000;2023-11-19T13:17:49;6.55;;;2.42;;
34353;SDS011;20618;0.000;0.000;2023-11-19T13:20:15;7.32;;;2.45;;
34353;SDS011;20618;0.000;0.000;2023-11-19T13:22:55;10.98;;;3.10;;
34353;SDS011;20618;0.000;0.000;2023-11-19T13:25:21;9.02;;;2.45;;
34353;SDS011;20618;0.000;0.000;2023-11-19T13:27:47;7.95;;;2.20;;
34353;SDS011;20618;0.000;0.000;2023-11-19T13:30:14;8.10;;;2.22;;
34353;SDS011;20618;0.000;0.000;2023-11-19T13:32:40;8.80;;;2.72;;
34353;SDS011;20618;0.000;0.000;2023-11-19T13:35:06;7.25;;;2.83;;
34353;SDS011;20618;0.000;0.000;2023-11-19T13:37:34;6.18;;;2.30;;
34353;SDS011;20618;0.000;0.000;2023-11-19T13:40:00;12.20;;;2.78;;
34353;SDS011;20618;0.000;0.000;2023-11-19T13:42:26;11.40;;;2.20;;
34353;SDS011;20618;0.000;0.000;2023-11-19T13:44:52;9.88;;;2.55;;
34353;SDS011;20618;0.000;0.000;2023-11-19T13:47:18;8.32;;;2.42;;
34353;SDS011;20618;0.000;0.000;2023-11-19T13:49:45;7.88;;;2.22;;
34353;SDS011;20618;0.000;0.000;2023-11-19T13:52:11;7.30;;;2.72;;
34353;SDS011;20618;0.000;0.000;2023-11-19T13:54:37;8.52;;;2.95;;
34353;SDS011;20618;0.000;0.000;2023-11-19T13:57:03;8.15;;;2.40;;
34353;SDS011;20618;0.000;0.000;2023-11-19T13:59:33;12.60;;;2.90;;
34353;SDS011;20618;0.000;0.000;2023-11-19T14:01:59;11.05;;;2.88;;
34353;SDS011;20618;0.000;0.000;2023-11-19T14:04:25;7.53;;;2.35;;
34353;SDS011;20618;0.000;0.000;2023-11-19T14:06:51;9.85;;;2.53;;
34353;SDS011;20618;0.000;0.000;2023-11-19T14:09:20;9.88;;;2.38;;
34353;SDS011;20618;0.000;0.000;2023-11-19T14:11:46;10.13;;;2.50;;
34353;SDS011;20618;0.000;0.000;2023-11-19T14:14:13;12.77;;;2.63;;
34353;SDS011;20618;0.000;0.000;2023-11-19T14:16:40;9.00;;;2.47;;
34353;SDS011;20618;0.000;0.000;2023-11-19T14:19:06;13.07;;;2.78;;
34353;SDS011;20618;0.000;0.000;2023-11-19T14:21:33;6.60;;;2.60;;
34353;SDS011;20618;0.000;0.000;2023-11-19T14:23:59;7.72;;;2.45;;
34353;SDS011;20618;0.000;0.000;2023-11-19T14:26:25;11.32;;;2.40;;
34353;SDS011;20618;0.000;0.000;2023-11-19T14:28:51;9.07;;;2.88;;
34353;SDS011;20618;0.000;0.000;2023-11-19T14:31:17;6.03;;;2.30;;
34353;SDS011;20618;0.000;0.000;2023-11-19T14:33:43;7.32;;;2.78;;
34353;SDS011;20618;0.000;0.000;2023-11-19T14:36:10;6.47;;;2.42;;
34353;SDS011;20618;0.000;0.000;2023-11-19T14:38:36;9.88;;;2.97;;
34353;SDS011;20618;0.000;0.000;2023-11-19T14:41:02;7.05;;;2.50;;
34353;SDS011;20618;0.000;0.000;2023-11-19T14:43:30;9.30;;;2.40;;
34353;SDS011;20618;0.000;0.000;2023-11-19T14:45:56;11.38;;;2.65;;
34353;SDS011;20618;0.000;0.000;2023-11-19T14:48:22;10.80;;;2.50;;
34353;SDS011;20618;0.000;0.000;2023-11-19T14:50:48;8.73;;;2.90;;
34353;SDS011;20618;0.000;0.000;2023-11-19T14:53:15;15.00;;;2.65;;
34353;SDS011;20618;0.000;0.000;2023-11-19T14:55:41;8.57;;;2.65;;
34353;SDS011;20618;0.000;0.000;2023-11-19T14:58:07;9.65;;;2.78;;
34353;SDS011;20618;0.000;0.000;2023-11-19T15:00:34;9.57;;;2.67;;
34353;SDS011;20618;0.000;0.000;2023-11-19T15:03:00;7.25;;;2.33;;
34353;SDS011;20618;0.000;0.000;2023-11-19T15:05:26;9.05;;;2.35;;
34353;SDS011;20618;0.000;0.000;2023-11-19T15:07:54;9.82;;;2.72;;
34353;SDS011;20618;0.000;0.000;2023-11-19T15:10:20;11.07;;;2.53;;
34353;SDS011;20618;0.000;0.000;2023-11-19T15:12:46;8.13;;;2.63;;
34353;SDS011;20618;0.000;0.000;2023-11-19T15:15:13;10.00;;;2.40;;
34353;SDS011;20618;0.000;0.000;2023-11-19T15:17:39;7.88;;;2.65;;
34353;SDS011;20618;0.000;0.000;2023-11-19T15:20:06;11.57;;;3.13;;
34353;SDS011;20618;0.000;0.000;2023-11-19T15:22:32;9.65;;;2.65;;
34353;SDS011;20618;0.000;0.000;2023-11-19T15:24:58;7.85;;;2.50;;
34353;SDS011;20618;0.000;0.000;2023-11-19T15:27:24;13.73;;;2.95;;
34353;SDS011;20618;0.000;0.000;2023-11-19T15:29:50;8.55;;;2.60;;